createdAt,value
2022-08-22T00:00:13.867Z,0.00
2022-08-22T00:01:13.800Z,0.00
2022-08-22T00:02:13.856Z,0.00
2022-08-22T00:02:49.712Z,0.00
2022-08-22T00:02:53.142Z,0.00
2022-08-22T00:02:53.749Z,0.00
2022-08-22T00:02:57.283Z,0.00
2022-08-22T00:03:08.058Z,0.00
2022-08-22T00:03:08.632Z,0.00
2022-08-22T00:03:18.731Z,0.00
2022-08-22T00:04:14.760Z,0.00
2022-08-22T00:05:13.759Z,0.00
2022-08-22T00:06:13.753Z,0.00
2022-08-22T00:07:14.439Z,0.00
2022-08-22T00:08:13.719Z,0.00
2022-08-22T00:09:13.731Z,0.00
2022-08-22T00:10:22.808Z,0.00
2022-08-22T00:11:14.682Z,0.00
2022-08-22T00:12:13.683Z,0.00
2022-08-22T00:13:13.682Z,0.00
2022-08-22T00:14:13.670Z,0.00
2022-08-22T00:15:42.151Z,0.00
2022-08-22T00:16:14.654Z,0.00
2022-08-22T00:17:13.621Z,0.00
2022-08-22T00:18:13.634Z,0.00
2022-08-22T00:19:13.602Z,0.00
2022-08-22T00:20:13.615Z,0.00
2022-08-22T00:21:13.574Z,0.00
2022-08-22T00:22:13.572Z,0.00
2022-08-22T00:23:13.552Z,0.00
2022-08-22T00:24:13.546Z,0.00
2022-08-22T00:25:25.922Z,0.00
2022-08-22T00:26:14.642Z,0.00
2022-08-22T00:27:13.524Z,0.00
2022-08-22T00:28:13.495Z,0.00
2022-08-22T00:29:13.486Z,0.00
2022-08-22T00:30:13.494Z,0.00
2022-08-22T00:31:13.467Z,0.00
2022-08-22T00:32:13.474Z,0.00
2022-08-22T00:33:13.437Z,0.00
2022-08-22T00:34:13.442Z,0.00
2022-08-22T00:35:13.436Z,0.00
2022-08-22T00:36:13.404Z,0.00
2022-08-22T00:37:13.395Z,0.00
2022-08-22T00:38:13.387Z,0.00
2022-08-22T00:39:13.367Z,0.00
2022-08-22T00:40:13.497Z,0.00
2022-08-22T00:41:13.357Z,0.00
2022-08-22T00:42:13.347Z,0.00
2022-08-22T00:43:13.329Z,0.00
2022-08-22T00:44:13.318Z,0.00
2022-08-22T00:45:13.306Z,0.00
2022-08-22T00:46:13.326Z,0.00
2022-08-22T00:47:13.286Z,0.00
2022-08-22T00:48:14.614Z,0.00
2022-08-22T00:49:13.291Z,0.00
2022-08-22T00:50:13.249Z,0.00
2022-08-22T00:51:13.238Z,0.00
2022-08-22T00:52:13.236Z,0.00
2022-08-22T00:53:13.218Z,0.00
2022-08-22T00:54:17.574Z,0.00
2022-08-22T00:55:14.190Z,0.00
2022-08-22T00:56:13.179Z,0.00
2022-08-22T00:57:13.178Z,0.00
2022-08-22T00:58:13.160Z,0.00
2022-08-22T00:59:23.322Z,0.00
2022-08-22T01:00:14.144Z,0.00
2022-08-22T01:01:13.190Z,0.00
2022-08-22T01:02:13.120Z,0.00
2022-08-22T01:03:13.102Z,0.00
2022-08-22T01:04:13.091Z,0.00
2022-08-22T01:05:13.112Z,0.00
2022-08-22T01:06:13.071Z,0.00
2022-08-22T01:07:13.060Z,0.00
2022-08-22T01:08:13.055Z,0.00
2022-08-22T01:09:13.040Z,0.00
2022-08-22T01:10:13.031Z,0.00
2022-08-22T01:11:13.041Z,0.00
2022-08-22T01:12:13.011Z,0.00
2022-08-22T01:13:12.991Z,0.00
2022-08-22T01:14:12.989Z,0.00
2022-08-22T01:15:12.992Z,0.00
2022-08-22T01:16:12.963Z,0.00
2022-08-22T01:17:12.954Z,0.00
2022-08-22T01:18:12.944Z,0.00
2022-08-22T01:19:12.923Z,0.00
2022-08-22T01:20:12.922Z,0.00
2022-08-22T01:21:12.925Z,0.00
2022-08-22T01:22:12.921Z,0.00
2022-08-22T01:23:12.883Z,0.00
2022-08-22T01:24:12.875Z,0.00
2022-08-22T01:25:12.918Z,0.00
2022-08-22T01:26:12.855Z,0.00
2022-08-22T01:27:12.855Z,0.00
2022-08-22T01:28:12.834Z,0.00
2022-08-22T01:29:12.823Z,0.00
2022-08-22T01:30:12.826Z,0.00
2022-08-22T01:31:12.787Z,0.00
2022-08-22T01:32:12.785Z,0.00
2022-08-22T01:33:12.774Z,0.00
2022-08-22T01:34:13.138Z,0.00
2022-08-22T01:35:12.765Z,0.00
2022-08-22T01:36:12.744Z,0.00
2022-08-22T01:37:12.728Z,0.00
2022-08-22T01:38:12.718Z,0.00
2022-08-22T01:39:12.697Z,0.00
2022-08-22T01:40:12.774Z,0.00
2022-08-22T01:41:12.688Z,0.00
2022-08-22T01:42:12.668Z,0.00
2022-08-22T01:43:12.679Z,0.00
2022-08-22T01:44:12.658Z,0.00
2022-08-22T01:45:12.639Z,0.00
2022-08-22T01:46:12.628Z,0.00
2022-08-22T01:47:13.619Z,0.00
2022-08-22T01:48:12.636Z,0.00
2022-08-22T01:49:12.589Z,0.00
2022-08-22T01:50:12.579Z,0.00
2022-08-22T01:51:12.579Z,0.00
2022-08-22T01:52:12.560Z,0.00
2022-08-22T01:53:12.548Z,0.00
2022-08-22T01:54:12.561Z,0.00
2022-08-22T01:55:12.526Z,0.00
2022-08-22T01:56:12.518Z,0.00
2022-08-22T01:57:12.501Z,0.00
2022-08-22T01:58:12.497Z,0.00
2022-08-22T01:59:12.510Z,0.00
2022-08-22T02:00:12.490Z,0.00
2022-08-22T02:01:12.482Z,0.00
2022-08-22T02:02:12.451Z,0.00
2022-08-22T02:03:12.430Z,0.00
2022-08-22T02:04:12.429Z,0.00
2022-08-22T02:05:12.441Z,0.00
2022-08-22T02:06:14.563Z,0.00
2022-08-22T02:07:12.391Z,0.00
2022-08-22T02:08:12.390Z,0.00
2022-08-22T02:09:12.394Z,0.00
2022-08-22T02:10:12.381Z,0.00
2022-08-22T02:11:12.344Z,0.00
2022-08-22T02:12:21.412Z,0.00
2022-08-22T02:13:13.321Z,0.00
2022-08-22T02:14:12.314Z,0.00
2022-08-22T02:15:12.322Z,0.00
2022-08-22T02:16:12.301Z,0.00
2022-08-22T02:17:12.282Z,0.00
2022-08-22T02:18:12.285Z,0.00
2022-08-22T02:19:12.253Z,0.00
2022-08-22T02:20:12.273Z,0.00
2022-08-22T02:21:12.241Z,0.00
2022-08-22T02:22:12.224Z,0.00
2022-08-22T02:23:12.225Z,0.00
2022-08-22T02:24:12.204Z,0.00
2022-08-22T02:25:12.203Z,0.00
2022-08-22T02:26:12.212Z,0.00
2022-08-22T02:27:12.176Z,0.00
2022-08-22T02:28:12.163Z,0.00
2022-08-22T02:29:12.144Z,0.00
2022-08-22T02:30:12.162Z,0.00
2022-08-22T02:31:12.125Z,0.00
2022-08-22T02:32:12.118Z,0.00
2022-08-22T02:33:12.105Z,0.00
2022-08-22T02:34:12.096Z,0.00
2022-08-22T02:35:12.106Z,0.00
2022-08-22T02:36:12.067Z,0.00
2022-08-22T02:37:12.077Z,0.00
2022-08-22T02:38:12.055Z,0.00
2022-08-22T02:39:12.038Z,0.00
2022-08-22T02:40:12.092Z,0.00
2022-08-22T02:41:12.014Z,0.00
2022-08-22T02:42:12.006Z,0.00
2022-08-22T02:43:11.988Z,0.00
2022-08-22T02:44:11.987Z,0.00
2022-08-22T02:45:11.967Z,0.00
2022-08-22T02:46:11.991Z,0.00
2022-08-22T02:47:11.947Z,0.00
2022-08-22T02:48:11.947Z,0.00
2022-08-22T02:49:11.935Z,0.00
2022-08-22T02:50:12.604Z,0.00
2022-08-22T02:51:11.928Z,0.00
2022-08-22T02:52:11.922Z,0.00
2022-08-22T02:53:11.879Z,0.00
2022-08-22T02:54:11.876Z,0.00
2022-08-22T02:55:11.859Z,0.00
2022-08-22T02:56:11.849Z,0.00
2022-08-22T02:57:14.420Z,0.00
2022-08-22T02:58:11.830Z,0.00
2022-08-22T02:59:11.819Z,0.00
2022-08-22T03:00:30.737Z,0.00
2022-08-22T03:01:12.868Z,0.00
2022-08-22T03:02:11.810Z,0.00
2022-08-22T03:03:11.773Z,0.00
2022-08-22T03:04:11.760Z,0.00
2022-08-22T03:05:11.754Z,0.00
2022-08-22T03:06:11.741Z,0.00
2022-08-22T03:07:11.733Z,0.00
2022-08-22T03:08:13.099Z,0.00
2022-08-22T03:09:11.711Z,0.00
2022-08-22T03:10:11.692Z,0.00
2022-08-22T03:11:11.682Z,0.00
2022-08-22T03:12:11.694Z,0.00
2022-08-22T03:13:11.662Z,0.00
2022-08-22T03:14:11.652Z,0.00
2022-08-22T03:15:11.642Z,0.00
2022-08-22T03:16:11.623Z,0.00
2022-08-22T03:17:11.622Z,0.00
2022-08-22T03:18:11.637Z,0.00
2022-08-22T03:19:16.171Z,0.00
2022-08-22T03:20:12.583Z,0.00
2022-08-22T03:21:11.582Z,0.00
2022-08-22T03:22:11.563Z,0.00
2022-08-22T03:23:11.554Z,0.00
2022-08-22T03:24:11.576Z,0.00
2022-08-22T03:25:11.533Z,0.00
2022-08-22T03:26:11.521Z,0.00
2022-08-22T03:27:11.514Z,0.00
2022-08-22T03:28:11.495Z,0.00
2022-08-22T03:29:11.510Z,0.00
2022-08-22T03:30:11.475Z,0.00
2022-08-22T03:31:11.504Z,0.00
2022-08-22T03:32:11.453Z,0.00
2022-08-22T03:33:11.445Z,0.00
2022-08-22T03:34:11.426Z,0.00
2022-08-22T03:35:11.444Z,0.00
2022-08-22T03:36:11.405Z,0.00
2022-08-22T03:37:11.398Z,0.00
2022-08-22T03:38:11.386Z,0.00
2022-08-22T03:39:16.623Z,0.00
2022-08-22T03:40:12.406Z,0.00
2022-08-22T03:41:11.356Z,0.00
2022-08-22T03:42:11.336Z,0.00
2022-08-22T03:43:11.336Z,0.00
2022-08-22T03:44:11.338Z,0.00
2022-08-22T03:45:11.337Z,0.00
2022-08-22T03:46:11.297Z,0.00
2022-08-22T03:47:11.288Z,0.00
2022-08-22T03:48:11.276Z,0.00
2022-08-22T03:49:11.259Z,0.00
2022-08-22T03:50:11.277Z,0.00
2022-08-22T03:51:11.274Z,0.00
2022-08-22T03:52:11.230Z,0.00
2022-08-22T03:53:15.472Z,0.00
2022-08-22T03:54:12.209Z,0.00
2022-08-22T03:55:11.202Z,0.00
2022-08-22T03:56:11.188Z,0.00
2022-08-22T03:57:11.196Z,0.00
2022-08-22T03:58:12.022Z,0.00
2022-08-22T03:59:12.148Z,0.00
2022-08-22T04:00:11.142Z,0.00
2022-08-22T04:01:11.170Z,0.00
2022-08-22T04:02:27.512Z,0.00
2022-08-22T04:03:12.110Z,0.00
2022-08-22T04:04:11.100Z,0.00
2022-08-22T04:05:11.081Z,0.00
2022-08-22T04:06:12.593Z,0.00
2022-08-22T04:07:17.757Z,0.00
2022-08-22T04:08:13.152Z,0.00
2022-08-22T04:09:11.070Z,0.00
2022-08-22T04:10:11.031Z,0.00
2022-08-22T04:11:11.021Z,0.00
2022-08-22T04:12:11.012Z,0.00
2022-08-22T04:13:10.992Z,0.00
2022-08-22T04:14:10.994Z,0.00
2022-08-22T04:15:10.993Z,0.00
2022-08-22T04:16:10.963Z,0.00
2022-08-22T04:17:10.951Z,0.00
2022-08-22T04:18:10.951Z,5.62
2022-08-22T04:19:10.954Z,5.62
2022-08-22T04:20:10.923Z,5.62
2022-08-22T04:21:10.913Z,5.62
2022-08-22T04:22:10.962Z,5.62
2022-08-22T04:23:10.960Z,5.62
2022-08-22T04:24:10.925Z,11.25
2022-08-22T04:25:10.956Z,11.25
2022-08-22T04:26:12.006Z,11.25
2022-08-22T04:27:10.883Z,11.25
2022-08-22T04:28:10.962Z,11.25
2022-08-22T04:29:11.172Z,16.88
2022-08-22T04:30:10.813Z,16.88
2022-08-22T04:31:10.806Z,16.88
2022-08-22T04:32:14.522Z,16.88
2022-08-22T04:33:10.782Z,22.50
2022-08-22T04:34:10.764Z,22.50
2022-08-22T04:35:10.775Z,22.50
2022-08-22T04:36:10.744Z,22.50
2022-08-22T04:37:10.738Z,28.12
2022-08-22T04:38:10.725Z,28.12
2022-08-22T04:39:10.706Z,28.12
2022-08-22T04:40:10.747Z,28.12
2022-08-22T04:41:10.707Z,33.75
2022-08-22T04:42:31.164Z,33.75
2022-08-22T04:43:11.665Z,33.75
2022-08-22T04:44:10.655Z,39.38
2022-08-22T04:45:10.675Z,39.38
2022-08-22T04:46:10.636Z,39.38
2022-08-22T04:47:10.626Z,39.38
2022-08-22T04:48:10.614Z,45.00
2022-08-22T04:49:10.607Z,45.00
2022-08-22T04:50:10.588Z,45.00
2022-08-22T04:51:10.918Z,50.62
2022-08-22T04:52:10.567Z,50.62
2022-08-22T04:53:10.557Z,50.62
2022-08-22T04:54:10.553Z,56.25
2022-08-22T04:55:10.597Z,56.25
2022-08-22T04:56:10.635Z,56.25
2022-08-22T04:57:10.530Z,61.88
2022-08-22T04:58:10.499Z,61.88
2022-08-22T04:59:10.489Z,61.88
2022-08-22T05:00:10.511Z,67.50
2022-08-22T05:01:10.490Z,67.50
2022-08-22T05:02:10.506Z,67.50
2022-08-22T05:03:10.441Z,73.12
2022-08-22T05:04:10.441Z,73.12
2022-08-22T05:05:13.445Z,78.75
2022-08-22T05:06:10.440Z,78.75
2022-08-22T05:07:10.402Z,78.75
2022-08-22T05:08:18.188Z,84.38
2022-08-22T05:09:14.214Z,84.38
2022-08-22T05:10:12.363Z,84.38
2022-08-22T05:11:10.367Z,84.38
2022-08-22T05:12:10.376Z,90.00
2022-08-22T05:13:10.337Z,90.00
2022-08-22T05:14:10.338Z,90.00
2022-08-22T05:15:10.310Z,90.00
2022-08-22T05:16:10.306Z,90.00
2022-08-22T05:17:10.309Z,90.00
2022-08-22T05:18:10.281Z,90.00
2022-08-22T05:19:13.204Z,95.62
2022-08-22T05:20:11.261Z,95.62
2022-08-22T05:21:11.234Z,101.25
2022-08-22T05:22:10.269Z,101.25
2022-08-22T05:23:16.966Z,101.25
2022-08-22T05:24:11.221Z,101.25
2022-08-22T05:25:10.200Z,101.25
2022-08-22T05:26:10.200Z,101.25
2022-08-22T05:27:10.181Z,106.88
2022-08-22T05:28:10.191Z,106.88
2022-08-22T05:29:10.159Z,112.50
2022-08-22T05:30:10.150Z,112.50
2022-08-22T05:31:10.132Z,118.12
2022-08-22T05:32:10.153Z,118.12
2022-08-22T05:33:10.112Z,118.12
2022-08-22T05:34:10.102Z,118.12
2022-08-22T05:35:10.095Z,123.75
2022-08-22T05:36:10.114Z,123.75
2022-08-22T05:37:10.076Z,123.75
2022-08-22T05:38:10.089Z,123.75
2022-08-22T05:39:10.084Z,129.38
2022-08-22T05:40:10.102Z,129.38
2022-08-22T05:41:10.029Z,129.38
2022-08-22T05:42:10.075Z,129.38
2022-08-22T05:43:10.119Z,129.38
2022-08-22T05:44:09.994Z,129.38
2022-08-22T05:45:12.115Z,135.00
2022-08-22T05:46:09.996Z,135.00
2022-08-22T05:47:09.962Z,135.00
2022-08-22T05:48:09.973Z,140.62
2022-08-22T05:49:09.933Z,146.25
2022-08-22T05:50:09.952Z,151.88
2022-08-22T05:51:09.914Z,151.88
2022-08-22T05:52:09.913Z,157.50
2022-08-22T05:53:09.894Z,157.50
2022-08-22T05:54:09.893Z,157.50
2022-08-22T05:55:09.896Z,157.50
2022-08-22T05:56:09.865Z,157.50
2022-08-22T05:57:09.846Z,157.50
2022-08-22T05:58:09.842Z,157.50
2022-08-22T05:59:09.854Z,157.50
2022-08-22T06:00:09.815Z,157.50
2022-08-22T06:01:09.820Z,163.12
2022-08-22T06:02:09.833Z,163.12
2022-08-22T06:03:09.785Z,168.75
2022-08-22T06:04:09.775Z,168.75
2022-08-22T06:05:12.040Z,174.38
2022-08-22T06:06:09.765Z,174.38
2022-08-22T06:07:09.746Z,174.38
2022-08-22T06:08:09.727Z,185.62
2022-08-22T06:09:09.717Z,185.62
2022-08-22T06:10:09.759Z,191.25
2022-08-22T06:11:09.689Z,191.25
2022-08-22T06:12:11.669Z,196.88
2022-08-22T06:13:11.758Z,202.50
2022-08-22T06:14:09.669Z,208.12
2022-08-22T06:15:11.999Z,208.12
2022-08-22T06:16:09.656Z,208.12
2022-08-22T06:17:09.649Z,213.75
2022-08-22T06:18:09.618Z,208.12
2022-08-22T06:19:19.548Z,213.75
2022-08-22T06:20:10.601Z,213.75
2022-08-22T06:21:09.579Z,219.38
2022-08-22T06:22:09.580Z,225.00
2022-08-22T06:23:09.598Z,230.62
2022-08-22T06:24:09.556Z,230.62
2022-08-22T06:25:09.531Z,225.00
2022-08-22T06:26:20.788Z,230.62
2022-08-22T06:27:10.518Z,236.25
2022-08-22T06:28:09.509Z,241.88
2022-08-22T06:29:09.519Z,241.88
2022-08-22T06:30:09.489Z,247.50
2022-08-22T06:31:09.480Z,247.50
2022-08-22T06:32:09.490Z,247.50
2022-08-22T06:33:12.614Z,247.50
2022-08-22T06:34:09.441Z,253.12
2022-08-22T06:35:09.431Z,253.12
2022-08-22T06:36:09.413Z,253.12
2022-08-22T06:37:09.402Z,241.88
2022-08-22T06:38:09.431Z,241.88
2022-08-22T06:39:09.382Z,258.75
2022-08-22T06:40:09.440Z,264.38
2022-08-22T06:41:09.353Z,275.62
2022-08-22T06:42:12.226Z,281.25
2022-08-22T06:43:10.363Z,292.50
2022-08-22T06:44:09.355Z,309.38
2022-08-22T06:45:09.334Z,320.62
2022-08-22T06:46:09.314Z,331.88
2022-08-22T06:47:09.294Z,331.88
2022-08-22T06:48:09.304Z,343.12
2022-08-22T06:49:09.307Z,343.12
2022-08-22T06:50:13.733Z,348.75
2022-08-22T06:51:09.246Z,360.00
2022-08-22T06:52:09.236Z,376.88
2022-08-22T06:53:09.225Z,382.50
2022-08-22T06:54:09.216Z,382.50
2022-08-22T06:55:09.232Z,388.12
2022-08-22T06:56:09.204Z,388.12
2022-08-22T06:57:09.197Z,382.50
2022-08-22T06:58:09.176Z,399.38
2022-08-22T06:59:09.186Z,399.38
2022-08-22T07:00:09.156Z,399.38
2022-08-22T07:01:12.310Z,421.88
2022-08-22T07:02:09.206Z,438.75
2022-08-22T07:03:09.117Z,455.62
2022-08-22T07:04:09.207Z,466.88
2022-08-22T07:05:09.117Z,478.12
2022-08-22T07:06:09.089Z,489.38
2022-08-22T07:07:09.069Z,506.25
2022-08-22T07:08:09.063Z,495.00
2022-08-22T07:09:09.062Z,495.00
2022-08-22T07:10:09.071Z,495.00
2022-08-22T07:11:09.032Z,495.00
2022-08-22T07:12:09.018Z,495.00
2022-08-22T07:13:09.010Z,495.00
2022-08-22T07:14:08.992Z,500.62
2022-08-22T07:15:09.007Z,511.88
2022-08-22T07:16:08.979Z,523.12
2022-08-22T07:17:08.965Z,534.38
2022-08-22T07:18:08.956Z,551.25
2022-08-22T07:19:08.939Z,545.62
2022-08-22T07:20:08.943Z,562.50
2022-08-22T07:21:09.319Z,585.00
2022-08-22T07:22:08.903Z,590.62
2022-08-22T07:23:08.892Z,585.00
2022-08-22T07:24:08.874Z,579.38
2022-08-22T07:25:08.893Z,579.38
2022-08-22T07:26:08.875Z,579.38
2022-08-22T07:27:08.848Z,556.88
2022-08-22T07:28:08.836Z,556.88
2022-08-22T07:29:11.391Z,562.50
2022-08-22T07:30:10.237Z,568.12
2022-08-22T07:31:08.918Z,590.62
2022-08-22T07:32:08.796Z,596.25
2022-08-22T07:33:26.353Z,585.00
2022-08-22T07:34:09.778Z,607.50
2022-08-22T07:35:08.794Z,618.75
2022-08-22T07:36:08.746Z,618.75
2022-08-22T07:37:08.746Z,624.38
2022-08-22T07:38:08.734Z,607.50
2022-08-22T07:39:11.102Z,585.00
2022-08-22T07:40:08.765Z,596.25
2022-08-22T07:41:08.728Z,624.38
2022-08-22T07:42:08.679Z,635.62
2022-08-22T07:43:08.678Z,646.88
2022-08-22T07:44:08.670Z,663.75
2022-08-22T07:45:08.658Z,675.00
2022-08-22T07:46:08.639Z,686.25
2022-08-22T07:47:08.661Z,725.62
2022-08-22T07:48:08.616Z,753.75
2022-08-22T07:49:10.041Z,787.50
2022-08-22T07:50:08.599Z,776.25
2022-08-22T07:51:08.730Z,770.62
2022-08-22T07:52:08.569Z,776.25
2022-08-22T07:53:08.569Z,776.25
2022-08-22T07:54:08.550Z,748.12
2022-08-22T07:55:08.551Z,720.00
2022-08-22T07:56:08.562Z,703.12
2022-08-22T07:57:08.519Z,703.12
2022-08-22T07:58:08.521Z,669.38
2022-08-22T07:59:12.852Z,669.38
2022-08-22T08:00:08.506Z,663.75
2022-08-22T08:01:08.527Z,663.75
2022-08-22T08:02:08.485Z,658.12
2022-08-22T08:03:08.461Z,658.12
2022-08-22T08:04:08.434Z,663.75
2022-08-22T08:05:08.436Z,652.50
2022-08-22T08:06:08.425Z,630.00
2022-08-22T08:07:08.435Z,624.38
2022-08-22T08:08:08.397Z,601.88
2022-08-22T08:09:08.398Z,607.50
2022-08-22T08:10:12.480Z,624.38
2022-08-22T08:11:08.384Z,624.38
2022-08-22T08:12:08.397Z,630.00
2022-08-22T08:13:08.346Z,624.38
2022-08-22T08:14:08.336Z,618.75
2022-08-22T08:15:09.328Z,613.12
2022-08-22T08:16:08.306Z,613.12
2022-08-22T08:17:08.318Z,613.12
2022-08-22T08:18:08.287Z,618.75
2022-08-22T08:19:08.277Z,618.75
2022-08-22T08:20:08.260Z,624.38
2022-08-22T08:21:08.249Z,630.00
2022-08-22T08:22:08.251Z,630.00
2022-08-22T08:23:08.258Z,630.00
2022-08-22T08:24:08.220Z,635.62
2022-08-22T08:25:08.218Z,630.00
2022-08-22T08:26:08.200Z,624.38
2022-08-22T08:27:08.211Z,613.12
2022-08-22T08:28:08.183Z,596.25
2022-08-22T08:29:08.169Z,579.38
2022-08-22T08:30:12.188Z,562.50
2022-08-22T08:31:09.150Z,540.00
2022-08-22T08:32:08.150Z,528.75
2022-08-22T08:33:25.717Z,517.50
2022-08-22T08:34:09.103Z,511.88
2022-08-22T08:35:08.102Z,506.25
2022-08-22T08:36:08.102Z,506.25
2022-08-22T08:37:08.100Z,511.88
2022-08-22T08:38:08.062Z,528.75
2022-08-22T08:39:08.065Z,545.62
2022-08-22T08:40:08.084Z,562.50
2022-08-22T08:41:08.035Z,573.75
2022-08-22T08:42:08.044Z,585.00
2022-08-22T08:43:09.077Z,585.00
2022-08-22T08:44:08.034Z,596.25
2022-08-22T08:45:07.988Z,601.88
2022-08-22T08:46:07.996Z,590.62
2022-08-22T08:47:07.996Z,590.62
2022-08-22T08:48:07.949Z,601.88
2022-08-22T08:49:07.946Z,607.50
2022-08-22T08:50:07.927Z,607.50
2022-08-22T08:51:07.925Z,607.50
2022-08-22T08:52:07.907Z,596.25
2022-08-22T08:53:07.949Z,618.75
2022-08-22T08:54:07.888Z,624.38
2022-08-22T08:55:15.959Z,635.62
2022-08-22T08:56:10.821Z,658.12
2022-08-22T08:57:07.859Z,675.00
2022-08-22T08:59:10.208Z,708.75
2022-08-22T09:00:07.819Z,708.75
2022-08-22T09:01:07.865Z,697.50
2022-08-22T09:02:07.822Z,697.50
2022-08-22T09:03:08.790Z,691.88
2022-08-22T09:04:15.160Z,691.88
2022-08-22T09:05:08.767Z,680.62
2022-08-22T09:06:07.760Z,675.00
2022-08-22T09:07:07.742Z,680.62
2022-08-22T09:08:07.793Z,686.25
2022-08-22T09:09:07.731Z,703.12
2022-08-22T09:10:07.712Z,714.38
2022-08-22T09:11:09.996Z,759.38
2022-08-22T09:12:07.703Z,798.75
2022-08-22T09:14:08.662Z,871.88
2022-08-22T09:15:11.882Z,883.12
2022-08-22T09:16:09.940Z,900.00
2022-08-22T09:17:07.635Z,916.88
2022-08-22T09:18:07.626Z,933.75
2022-08-22T09:19:07.616Z,945.00
2022-08-22T09:20:18.039Z,956.25
2022-08-22T09:21:08.614Z,967.50
2022-08-22T09:22:14.294Z,978.75
2022-08-22T09:23:10.222Z,978.75
2022-08-22T09:24:07.585Z,984.38
2022-08-22T09:25:07.546Z,990.00
2022-08-22T09:26:07.535Z,990.00
2022-08-22T09:27:08.706Z,984.38
2022-08-22T09:28:07.515Z,984.38
2022-08-22T09:29:07.507Z,973.12
2022-08-22T09:30:07.524Z,973.12
2022-08-22T09:31:16.869Z,961.88
2022-08-22T09:33:08.470Z,956.25
2022-08-22T09:34:07.469Z,956.25
2022-08-22T09:35:07.451Z,956.25
2022-08-22T09:36:12.004Z,961.88
2022-08-22T09:37:08.439Z,967.50
2022-08-22T09:38:08.428Z,967.50
2022-08-22T09:39:07.429Z,961.88
2022-08-22T09:40:15.704Z,956.25
2022-08-22T09:40:16.276Z,961.88
2022-08-22T09:41:08.383Z,967.50
2022-08-22T09:42:08.012Z,978.75
2022-08-22T09:43:07.352Z,984.38
2022-08-22T09:44:07.363Z,995.62
2022-08-22T09:45:07.336Z,1012.50
2022-08-22T09:46:07.321Z,1018.12
2022-08-22T09:47:07.314Z,1018.12
2022-08-22T09:48:07.635Z,1029.38
2022-08-22T09:49:07.285Z,1023.75
2022-08-22T09:50:07.297Z,1012.50
2022-08-22T09:51:28.790Z,1018.12
2022-08-22T09:52:15.202Z,1023.75
2022-08-22T09:53:08.245Z,1035.00
2022-08-22T09:54:07.228Z,1057.50
2022-08-22T09:55:08.139Z,1063.12
2022-08-22T09:56:11.729Z,1057.50
2022-08-22T09:57:08.223Z,1046.25
2022-08-22T09:58:11.238Z,1035.00
2022-08-22T09:59:07.189Z,1023.75
2022-08-22T10:00:07.168Z,1018.12
2022-08-22T10:01:07.210Z,1012.50
2022-08-22T10:02:07.138Z,1001.25
2022-08-22T10:03:08.128Z,1006.88
2022-08-22T10:04:07.120Z,1023.75
2022-08-22T10:05:07.108Z,1023.75
2022-08-22T10:06:07.116Z,1029.38
2022-08-22T10:07:11.237Z,1035.00
2022-08-22T10:08:08.071Z,1046.25
2022-08-22T10:09:08.944Z,1046.25
2022-08-22T10:10:07.050Z,1051.88
2022-08-22T10:11:07.064Z,1057.50
2022-08-22T10:12:07.023Z,1068.75
2022-08-22T10:13:10.532Z,1091.25
2022-08-22T10:14:07.011Z,1113.75
2022-08-22T10:15:07.187Z,1136.25
2022-08-22T10:16:06.985Z,1164.38
2022-08-22T10:17:07.206Z,1153.12
2022-08-22T10:18:06.954Z,1147.50
2022-08-22T10:19:06.952Z,1147.50
2022-08-22T10:20:06.933Z,1108.12
2022-08-22T10:21:06.946Z,1113.75
2022-08-22T10:22:07.021Z,1141.88
2022-08-22T10:23:07.239Z,1125.00
2022-08-22T10:24:07.201Z,1125.00
2022-08-22T10:25:06.890Z,1119.38
2022-08-22T10:26:06.898Z,1158.75
2022-08-22T10:27:06.868Z,1243.12
2022-08-22T10:28:06.846Z,1175.62
2022-08-22T10:29:06.839Z,1203.75
2022-08-22T10:30:06.839Z,1243.12
2022-08-22T10:31:06.837Z,1445.62
2022-08-22T10:32:14.554Z,1861.88
2022-08-22T10:33:07.799Z,1980.00
2022-08-22T10:34:06.793Z,1597.50
2022-08-22T10:35:06.779Z,1839.38
2022-08-22T10:36:06.800Z,1771.88
2022-08-22T10:37:06.751Z,1681.88
2022-08-22T10:38:06.740Z,2199.38
2022-08-22T10:39:11.080Z,2137.50
2022-08-22T10:40:07.819Z,2626.88
2022-08-22T10:41:09.721Z,3228.75
2022-08-22T10:42:06.751Z,4078.12
2022-08-22T10:43:06.692Z,3858.75
2022-08-22T10:44:06.685Z,3228.75
2022-08-22T10:45:06.683Z,3791.25
2022-08-22T10:46:06.850Z,4038.75
2022-08-22T10:47:07.673Z,3245.62
2022-08-22T10:48:08.621Z,2548.12
2022-08-22T10:49:07.975Z,2795.62
2022-08-22T10:50:10.789Z,2503.12
2022-08-22T10:51:08.838Z,2767.50
2022-08-22T10:52:15.350Z,2154.38
2022-08-22T10:53:07.587Z,1895.62
2022-08-22T10:54:06.588Z,3526.88
2022-08-22T10:55:09.972Z,3200.62
2022-08-22T10:56:06.556Z,2930.62
2022-08-22T10:57:06.843Z,3476.25
2022-08-22T10:58:06.546Z,3948.75
2022-08-22T10:59:06.524Z,3521.25
2022-08-22T11:00:06.514Z,3448.12
2022-08-22T11:01:37.926Z,3740.62
2022-08-22T11:02:08.171Z,3712.50
2022-08-22T11:03:10.641Z,3718.12
2022-08-22T11:04:07.471Z,3656.25
2022-08-22T11:05:06.460Z,3639.38
2022-08-22T11:06:06.470Z,3616.88
2022-08-22T11:07:06.622Z,3560.62
2022-08-22T11:08:06.451Z,3594.38
2022-08-22T11:09:06.425Z,3481.88
2022-08-22T11:10:06.405Z,3453.75
2022-08-22T11:11:06.429Z,3442.50
2022-08-22T11:12:06.385Z,3555.00
2022-08-22T11:13:06.405Z,3656.25
2022-08-22T11:14:06.380Z,3701.25
2022-08-22T11:15:06.364Z,3667.50
2022-08-22T11:16:06.350Z,3701.25
2022-08-22T11:17:27.453Z,3661.88
2022-08-22T11:18:07.348Z,3813.75
2022-08-22T11:19:15.357Z,3498.75
2022-08-22T11:20:07.320Z,3712.50
2022-08-22T11:21:07.296Z,3639.38
2022-08-22T11:22:06.288Z,3661.88
2022-08-22T11:23:06.308Z,3448.12
2022-08-22T11:24:06.270Z,3588.75
2022-08-22T11:25:07.260Z,3673.12
2022-08-22T11:26:06.252Z,3628.12
2022-08-22T11:27:07.338Z,3684.38
2022-08-22T11:28:07.233Z,3763.12
2022-08-22T11:29:13.616Z,3830.62
2022-08-22T11:30:07.254Z,3650.62
2022-08-22T11:31:07.273Z,3645.00
2022-08-22T11:32:07.988Z,3678.75
2022-08-22T11:33:06.223Z,3667.50
2022-08-22T11:34:06.173Z,3667.50
2022-08-22T11:35:09.084Z,3313.12
2022-08-22T11:36:06.183Z,2700.00
2022-08-22T11:37:09.560Z,2655.00
2022-08-22T11:38:08.883Z,2576.25
2022-08-22T11:39:07.910Z,2396.25
2022-08-22T11:40:07.176Z,2345.62
2022-08-22T11:41:06.106Z,2998.12
2022-08-22T11:42:06.148Z,3588.75
2022-08-22T11:43:06.460Z,3588.75
2022-08-22T11:44:07.077Z,3628.12
2022-08-22T11:45:06.066Z,3645.00
2022-08-22T11:46:06.058Z,3673.12
2022-08-22T11:47:06.068Z,3645.00
2022-08-22T11:48:06.037Z,3650.62
2022-08-22T11:49:06.030Z,3735.00
2022-08-22T11:50:10.763Z,3757.50
2022-08-22T11:51:13.613Z,3768.75
2022-08-22T11:52:07.033Z,3701.25
2022-08-22T11:53:07.701Z,3622.50
2022-08-22T11:54:06.001Z,3735.00
2022-08-22T11:55:07.171Z,3808.12
2022-08-22T11:56:05.960Z,3836.25
2022-08-22T11:57:05.972Z,3841.88
2022-08-22T11:58:05.944Z,3819.38
2022-08-22T11:59:05.933Z,3825.00
2022-08-22T12:00:05.931Z,3830.62
2022-08-22T12:01:05.914Z,3661.88
2022-08-22T12:02:05.959Z,3780.00
2022-08-22T12:03:05.912Z,3318.75
2022-08-22T12:04:05.894Z,2227.50
2022-08-22T12:05:05.876Z,2171.25
2022-08-22T12:06:05.867Z,3425.62
2022-08-22T12:07:05.856Z,3037.50
2022-08-22T12:08:05.875Z,1642.50
2022-08-22T12:09:05.843Z,1231.88
2022-08-22T12:10:05.838Z,1158.75
2022-08-22T12:11:05.808Z,1130.62
2022-08-22T12:12:05.827Z,1130.62
2022-08-22T12:13:05.802Z,1158.75
2022-08-22T12:14:06.500Z,1220.62
2022-08-22T12:15:09.011Z,1198.12
2022-08-22T12:16:05.769Z,1158.75
2022-08-22T12:17:05.779Z,1158.75
2022-08-22T12:18:05.817Z,1203.75
2022-08-22T12:19:05.785Z,1260.00
2022-08-22T12:20:16.827Z,1293.75
2022-08-22T12:21:06.740Z,1310.62
2022-08-22T12:22:05.711Z,1344.38
2022-08-22T12:23:05.970Z,1400.62
2022-08-22T12:24:06.014Z,1440.00
2022-08-22T12:25:05.673Z,1417.50
2022-08-22T12:26:05.672Z,1411.88
2022-08-22T12:27:08.039Z,1428.75
2022-08-22T12:28:05.642Z,1563.75
2022-08-22T12:29:05.659Z,1850.62
2022-08-22T12:30:13.726Z,1951.88
2022-08-22T12:31:06.614Z,3729.38
2022-08-22T12:32:05.604Z,3054.38
2022-08-22T12:33:05.595Z,4016.25
2022-08-22T12:34:06.540Z,4258.12
2022-08-22T12:35:13.855Z,4173.75
2022-08-22T12:36:06.564Z,3425.62
2022-08-22T12:37:06.550Z,3082.50